createdAt,value
2017-09-08T00:00:45.392Z,51.92
2017-09-08T00:01:54.384Z,52.01
2017-09-08T00:03:03.037Z,51.82
2017-09-08T00:04:12.324Z,51.73
2017-09-08T00:05:21.302Z,51.82
2017-09-08T00:06:30.583Z,51.82
2017-09-08T00:07:39.869Z,51.73
2017-09-08T00:08:48.846Z,51.92
2017-09-08T00:09:57.817Z,51.73
2017-09-08T00:11:07.148Z,51.73
2017-09-08T00:12:16.119Z,51.73
2017-09-08T00:13:25.090Z,51.82
2017-09-08T00:14:34.698Z,52.11
2017-09-08T00:15:43.992Z,51.82
2017-09-08T00:16:52.953Z,51.63
2017-09-08T00:18:02.249Z,51.92
2017-09-08T00:19:10.899Z,51.73
2017-09-08T00:20:20.196Z,51.73
2017-09-08T00:21:29.187Z,51.73
2017-09-08T00:22:38.473Z,51.73
2017-09-08T00:23:47.141Z,51.63
2017-09-08T00:24:56.422Z,51.73
2017-09-08T00:26:05.076Z,51.73
2017-09-08T00:27:14.354Z,51.73
2017-09-08T00:28:23.003Z,51.73
2017-09-08T00:29:31.978Z,51.82
2017-09-08T00:30:40.629Z,51.92
2017-09-08T00:31:49.926Z,51.53
2017-09-08T00:32:59.213Z,51.82
2017-09-08T00:34:08.247Z,51.63
2017-09-08T00:35:16.922Z,51.92
2017-09-08T00:36:25.908Z,51.92
2017-09-08T00:37:34.881Z,51.53
2017-09-08T00:38:44.164Z,51.73
2017-09-08T00:39:52.815Z,51.82
2017-09-08T00:41:01.784Z,51.73
2017-09-08T00:42:10.776Z,51.73
2017-09-08T00:43:20.384Z,51.73
2017-09-08T00:44:30.016Z,51.73
2017-09-08T00:45:39.297Z,52.01
2017-09-08T00:46:48.259Z,51.73
2017-09-08T00:47:57.871Z,51.73
2017-09-08T00:49:06.844Z,51.82
2017-09-08T00:50:16.136Z,51.73
2017-09-08T00:51:25.463Z,51.82
2017-09-08T00:52:34.119Z,51.73
2017-09-08T00:53:43.099Z,51.82
2017-09-08T00:54:51.798Z,51.82
2017-09-08T00:56:00.734Z,51.82
2017-09-08T00:57:09.725Z,51.82
2017-09-08T00:58:19.767Z,51.82
2017-09-08T00:59:28.738Z,51.63
2017-09-08T01:00:37.415Z,51.92
2017-09-08T01:01:46.703Z,51.63
2017-09-08T01:02:55.677Z,51.92
2017-09-08T01:04:04.675Z,51.92
2017-09-08T01:05:13.337Z,51.63
2017-09-08T01:06:22.327Z,51.82
2017-09-08T01:07:31.614Z,51.63
2017-09-08T01:08:40.589Z,51.82
2017-09-08T01:09:49.277Z,51.63
2017-09-08T01:10:57.937Z,51.82
2017-09-08T01:12:06.588Z,51.82
2017-09-08T01:13:15.573Z,51.82
2017-09-08T01:14:24.863Z,51.8
2017-09-08T01:15:33.839Z,51.8
2017-09-08T01:16:42.822Z,51.8
2017-09-08T01:17:52.126Z,51.73
2017-09-08T01:19:01.418Z,51.73
2017-09-08T01:20:10.616Z,51.7
2017-09-08T01:21:19.602Z,51.8
2017-09-08T01:22:28.571Z,51.99
2017-09-08T01:23:38.162Z,51.73
2017-09-08T01:24:47.132Z,51.8
2017-09-08T01:25:56.428Z,51.7
2017-09-08T01:27:05.063Z,51.8
2017-09-08T01:28:13.724Z,51.51
2017-09-08T01:29:23.326Z,51.8
2017-09-08T01:30:32.304Z,51.7
2017-09-08T01:31:41.270Z,51.89
2017-09-08T01:32:50.257Z,51.99
2017-09-08T01:33:59.302Z,51.89
2017-09-08T01:35:08.285Z,51.89
2017-09-08T01:36:17.266Z,52.09
2017-09-08T01:37:26.571Z,51.7
2017-09-08T01:38:35.544Z,51.89
2017-09-08T01:39:44.846Z,51.8
2017-09-08T01:40:54.152Z,51.89
2017-09-08T01:42:02.812Z,51.89
2017-09-08T01:43:12.108Z,51.7
2017-09-08T01:44:21.074Z,51.89
2017-09-08T01:45:29.739Z,51.7
2017-09-08T01:46:39.036Z,51.8
2017-09-08T01:47:48.650Z,51.8
2017-09-08T01:48:57.628Z,51.7
2017-09-08T01:50:06.912Z,51.7
2017-09-08T01:51:16.201Z,51.8
2017-09-08T01:52:25.510Z,51.8
2017-09-08T01:53:35.112Z,51.7
2017-09-08T01:54:44.717Z,51.89
2017-09-08T01:55:54.363Z,51.8
2017-09-08T01:57:03.971Z,51.89
2017-09-08T01:58:13.901Z,51.99
2017-09-08T01:59:23.647Z,51.89
2017-09-08T02:00:32.936Z,51.8
2017-09-08T02:01:42.268Z,51.7
2017-09-08T02:02:51.252Z,51.51
2017-09-08T02:04:00.846Z,51.8
2017-09-08T02:05:10.127Z,51.7
2017-09-08T02:06:19.724Z,51.61
2017-09-08T02:07:28.389Z,51.99
2017-09-08T02:08:37.368Z,51.8
2017-09-08T02:09:46.970Z,51.89
2017-09-08T02:10:56.285Z,51.8
2017-09-08T02:12:05.255Z,51.99
2017-09-08T02:13:13.914Z,51.89
2017-09-08T02:14:23.202Z,51.61
2017-09-08T02:15:31.855Z,51.99
2017-09-08T02:16:41.475Z,51.89
2017-09-08T02:17:50.461Z,51.8
2017-09-08T02:18:59.451Z,51.8
2017-09-08T02:20:08.441Z,51.58
2017-09-08T02:21:18.037Z,52.09
2017-09-08T02:22:27.012Z,52.16
2017-09-08T02:23:36.290Z,52.16
2017-09-08T02:24:45.259Z,51.87
2017-09-08T02:25:54.550Z,52.06
2017-09-08T02:27:03.230Z,51.97
2017-09-08T02:28:12.212Z,52.16
2017-09-08T02:29:21.187Z,51.58
2017-09-08T02:30:30.474Z,51.77
2017-09-08T02:31:39.762Z,51.7
2017-09-08T02:32:48.750Z,51.41
2017-09-08T02:33:58.055Z,51.89
2017-09-08T02:35:07.663Z,51.51
2017-09-08T02:36:16.946Z,51.8
2017-09-08T02:37:26.553Z,51.8
2017-09-08T02:38:35.862Z,51.7
2017-09-08T02:39:45.145Z,51.7
2017-09-08T02:40:54.123Z,51.7
2017-09-08T02:42:02.812Z,51.8
2017-09-08T02:43:12.411Z,51.8
2017-09-08T02:44:21.391Z,51.8
2017-09-08T02:45:30.053Z,51.7
2017-09-08T02:46:39.662Z,51.7
2017-09-08T02:47:48.641Z,51.8
2017-09-08T02:48:57.930Z,51.8
2017-09-08T02:50:07.535Z,51.8
2017-09-08T02:51:17.153Z,51.8
2017-09-08T02:52:26.448Z,51.89
2017-09-08T02:53:35.741Z,51.7
2017-09-08T02:54:44.404Z,51.7
2017-09-08T02:55:53.433Z,51.8
2017-09-08T02:57:02.724Z,51.89
2017-09-08T02:58:12.012Z,51.61
2017-09-08T02:59:21.312Z,51.89
2017-09-08T03:00:30.292Z,51.89
2017-09-08T03:01:39.582Z,51.89
2017-09-08T03:02:48.560Z,51.61
2017-09-08T03:03:57.850Z,51.7
2017-09-08T03:05:06.503Z,51.7
2017-09-08T03:06:15.152Z,51.8
2017-09-08T03:07:24.441Z,51.89
2017-09-08T03:08:33.093Z,51.89
2017-09-08T03:09:42.416Z,51.7
2017-09-08T03:10:51.068Z,51.8
2017-09-08T03:12:00.034Z,51.7
2017-09-08T03:13:09.330Z,51.7
2017-09-08T03:14:18.627Z,51.8
2017-09-08T03:15:27.285Z,51.8
2017-09-08T03:16:36.898Z,51.7
2017-09-08T03:17:46.811Z,51.8
2017-09-08T03:18:56.091Z,51.51
2017-09-08T03:20:04.781Z,51.7
2017-09-08T03:21:13.766Z,51.61
2017-09-08T03:22:22.745Z,51.7
2017-09-08T03:23:32.362Z,51.61
2017-09-08T03:24:41.326Z,51.22
2017-09-08T03:25:50.653Z,51.41
2017-09-08T03:26:59.959Z,51.22
2017-09-08T03:28:08.942Z,51.32
2017-09-08T03:29:17.908Z,51.22
2017-09-08T03:30:27.503Z,51.51
2017-09-08T03:31:36.489Z,51.51
2017-09-08T03:32:45.782Z,51.51
2017-09-08T03:33:55.064Z,50.93
2017-09-08T03:35:04.356Z,51.41
2017-09-08T03:36:13.328Z,51.41
2017-09-08T03:37:22.610Z,51.03
2017-09-08T03:38:31.886Z,51.12
2017-09-08T03:39:40.848Z,51.12
2017-09-08T03:40:50.142Z,50.93
2017-09-08T03:41:58.804Z,51.03
2017-09-08T03:43:07.775Z,51.22
2017-09-08T03:44:16.454Z,51.32
2017-09-08T03:45:25.113Z,51.22
2017-09-08T03:46:34.082Z,51.22
2017-09-08T03:47:43.067Z,51.32
2017-09-08T03:48:52.042Z,50.74
2017-09-08T03:50:01.017Z,51.03
2017-09-08T03:51:10.046Z,50.84
2017-09-08T03:52:19.018Z,51.12
2017-09-08T03:53:28.323Z,50.93
2017-09-08T03:54:37.004Z,51.03
2017-09-08T03:55:45.670Z,51.03
2017-09-08T03:56:54.957Z,50.93
2017-09-08T03:58:04.246Z,50.93
2017-09-08T03:59:13.257Z,51.03
2017-09-08T04:00:22.561Z,50.84
2017-09-08T04:01:31.856Z,51.22
2017-09-08T04:02:40.828Z,51.22
2017-09-08T04:03:50.099Z,51.32
2017-09-08T04:04:59.075Z,50.93
2017-09-08T04:06:08.060Z,50.84
2017-09-08T04:07:17.047Z,50.84
2017-09-08T04:08:25.705Z,51.41
2017-09-08T04:09:34.982Z,51.12
2017-09-08T04:10:43.971Z,50.84
2017-09-08T04:11:53.273Z,50.93
2017-09-08T04:13:02.875Z,51.22
2017-09-08T04:14:12.469Z,51.22
2017-09-08T04:15:21.764Z,51.22
2017-09-08T04:16:30.729Z,51.12
2017-09-08T04:17:40.016Z,51.03
2017-09-08T04:18:49.309Z,51.03
2017-09-08T04:19:58.296Z,51.22
2017-09-08T04:21:07.588Z,50.93
2017-09-08T04:22:16.551Z,50.84
2017-09-08T04:23:25.850Z,50.74
2017-09-08T04:24:35.139Z,50.93
2017-09-08T04:25:44.122Z,50.74
2017-09-08T04:26:53.414Z,50.93
2017-09-08T04:28:03.033Z,51.22
2017-09-08T04:29:12.627Z,50.84
2017-09-08T04:30:21.307Z,50.93
2017-09-08T04:31:30.296Z,51.32
2017-09-08T04:32:38.958Z,50.74
2017-09-08T04:33:47.630Z,50.84
2017-09-08T04:34:56.597Z,50.84
2017-09-08T04:36:06.159Z,51.03
2017-09-08T04:37:15.125Z,51.12
2017-09-08T04:38:24.423Z,51.03
2017-09-08T04:39:33.741Z,50.74
2017-09-08T04:40:43.357Z,50.74
2017-09-08T04:41:52.643Z,50.93
2017-09-08T04:43:01.938Z,51.22
2017-09-08T04:44:11.225Z,50.84
2017-09-08T04:45:20.206Z,50.93
2017-09-08T04:46:29.189Z,50.93
2017-09-08T04:47:37.862Z,51.22
2017-09-08T04:48:47.151Z,51.2
2017-09-08T04:49:56.123Z,51.12
2017-09-08T04:51:05.125Z,51.03
2017-09-08T04:52:13.785Z,51.22
2017-09-08T04:53:22.764Z,51.22
2017-09-08T04:54:31.743Z,51.12
2017-09-08T04:55:40.715Z,51.22
2017-09-08T04:56:49.371Z,50.93
2017-09-08T04:57:58.343Z,51.32
2017-09-08T04:59:07.635Z,51.12
2017-09-08T05:00:16.277Z,51.12
2017-09-08T05:01:25.572Z,51.41
2017-09-08T05:02:34.843Z,51.12
2017-09-08T05:03:43.509Z,51.12
2017-09-08T05:04:52.472Z,50.74
2017-09-08T05:06:01.443Z,50.74
2017-09-08T05:07:11.366Z,50.64
2017-09-08T05:08:20.325Z,50.64
2017-09-08T05:09:28.973Z,50.64
2017-09-08T05:10:37.617Z,50.64
2017-09-08T05:11:46.886Z,50.45
2017-09-08T05:12:55.852Z,50.09
2017-09-08T05:14:04.804Z,50.38
2017-09-08T05:15:13.765Z,50.28
2017-09-08T05:16:23.093Z,50.38
2017-09-08T05:17:31.766Z,50.67
2017-09-08T05:18:40.722Z,50.38
2017-09-08T05:19:49.397Z,49.99
2017-09-08T05:20:58.131Z,50.18
2017-09-08T05:22:07.120Z,49.8
2017-09-08T05:23:16.415Z,49.99
2017-09-08T05:24:25.391Z,50.18
2017-09-08T05:25:34.095Z,50.18
2017-09-08T05:26:43.380Z,50.18
2017-09-08T05:27:52.674Z,49.9
2017-09-08T05:29:02.267Z,49.6
2017-09-08T05:30:11.558Z,49.7
2017-09-08T05:31:20.220Z,49.8
2017-09-08T05:32:29.195Z,49.8
2017-09-08T05:33:37.847Z,49.82
2017-09-08T05:34:46.818Z,49.92
2017-09-08T05:35:55.810Z,49.53
2017-09-08T05:37:05.418Z,49.53
2017-09-08T05:38:14.698Z,49.63
2017-09-08T05:39:23.682Z,49.63
2017-09-08T05:40:32.973Z,49.63
2017-09-08T05:41:42.266Z,49.73
2017-09-08T05:42:50.920Z,49.24
2017-09-08T05:43:59.648Z,49.05
2017-09-08T05:45:08.325Z,49.05
2017-09-08T05:46:16.967Z,48.95
2017-09-08T05:47:25.943Z,49.24
2017-09-08T05:48:34.951Z,48.95
2017-09-08T05:49:44.586Z,48.86
2017-09-08T05:50:53.528Z,48.88
2017-09-08T05:52:02.831Z,48.97
2017-09-08T05:53:11.802Z,48.95
2017-09-08T05:54:21.083Z,48.97
2017-09-08T05:55:30.058Z,49.17
2017-09-08T05:56:39.053Z,49.07
2017-09-08T05:57:48.020Z,48.88
2017-09-08T05:58:56.661Z,48.97
2017-09-08T06:00:05.624Z,48.97
2017-09-08T06:01:14.903Z,48.79
2017-09-08T06:02:24.168Z,48.97
2017-09-08T06:03:33.800Z,48.97
2017-09-08T06:04:42.834Z,48.97
2017-09-08T06:05:51.483Z,49.27
2017-09-08T06:07:01.072Z,49.07
2017-09-08T06:08:10.055Z,49.07
2017-09-08T06:09:19.074Z,49.07
2017-09-08T06:10:28.103Z,49.07
2017-09-08T06:11:36.747Z,49.07
2017-09-08T06:12:46.026Z,49.07
2017-09-08T06:13:54.675Z,49.55
2017-09-08T06:15:03.953Z,49.27
2017-09-08T06:16:13.612Z,49.75
2017-09-08T06:17:22.896Z,49.75
2017-09-08T06:18:31.860Z,49.65
2017-09-08T06:19:40.835Z,49.75
2017-09-08T06:20:49.808Z,49.63
2017-09-08T06:21:58.467Z,49.55
2017-09-08T06:23:07.747Z,49.65
2017-09-08T06:24:16.709Z,49.27
2017-09-08T06:25:25.985Z,49.27
2017-09-08T06:26:34.628Z,49.37
2017-09-08T06:27:44.537Z,49.07
2017-09-08T06:28:53.816Z,49.07
2017-09-08T06:30:02.468Z,49.07
2017-09-08T06:31:11.760Z,49.17
2017-09-08T06:32:20.727Z,49.07
2017-09-08T06:33:30.001Z,49.17
2017-09-08T06:34:38.975Z,49.07
2017-09-08T06:35:47.934Z,49.07
2017-09-08T06:36:56.894Z,49.07
2017-09-08T06:38:05.549Z,49.17
2017-09-08T06:39:15.154Z,49.07
2017-09-08T06:40:24.475Z,49.07
2017-09-08T06:41:33.432Z,49.37
2017-09-08T06:42:42.759Z,49.46
2017-09-08T06:43:51.420Z,49.46
2017-09-08T06:45:00.387Z,49.27
2017-09-08T06:46:09.672Z,49.55
2017-09-08T06:47:18.658Z,49.27
2017-09-08T06:48:27.313Z,49.65
2017-09-08T06:49:35.980Z,49.55
2017-09-08T06:50:45.262Z,49.65
2017-09-08T06:51:54.236Z,49.65
2017-09-08T06:53:02.898Z,49.55
2017-09-08T06:54:12.173Z,49.55
2017-09-08T06:55:21.139Z,49.65
2017-09-08T06:56:30.426Z,49.55
2017-09-08T06:57:39.393Z,49.55
2017-09-08T06:58:48.684Z,49.65
2017-09-08T06:59:57.957Z,49.65
2017-09-08T07:01:07.245Z,49.55
2017-09-08T07:02:16.527Z,49.55
2017-09-08T07:03:25.503Z,49.46
2017-09-08T07:04:34.486Z,49.55
2017-09-08T07:05:43.153Z,49.65
2017-09-08T07:06:52.124Z,49.65
2017-09-08T07:08:01.763Z,49.27
2017-09-08T07:09:10.726Z,49.55
2017-09-08T07:10:20.332Z,49.55
2017-09-08T07:11:29.046Z,49.46
2017-09-08T07:12:37.708Z,49.46
2017-09-08T07:13:46.991Z,49.37
2017-09-08T07:14:55.957Z,49.46
2017-09-08T07:18:39.690Z,49.46
2017-09-08T07:19:48.680Z,49.46
2017-09-08T07:20:57.975Z,49.46
2017-09-08T07:22:07.589Z,49.46
2017-09-08T07:23:16.561Z,49.46
2017-09-08T07:24:25.541Z,49.55
2017-09-08T07:28:06.870Z,49.46
2017-09-08T07:29:15.844Z,49.55
2017-09-08T07:30:24.809Z,49.55
2017-09-08T07:31:34.111Z,49.65
2017-09-08T07:35:15.447Z,49.75
2017-09-08T07:36:25.050Z,49.65
2017-09-08T07:37:34.022Z,49.65
2017-09-08T07:41:15.695Z,49.68
